Monday, July 16, 2018, 11:42 PM MDT
Back to Local

KPHP, Philip Airport

Location: Philip, SD, United States Lat: 44.05
Local Time: 11:42 PM MDT ( 5:42 GMT) Lon: -101.6
Time Zone: US/Mountain Elev: 2207 ft

Show me the last for .
Show Decoded

2018-07-16 22:55 METAR KPHP 170455Z AUTO 13005KT 10SM CLR 22/17 A3008 RMK AO2 SLP164 T02170167 =
2018-07-16 21:55 METAR KPHP 170355Z AUTO 09006KT 10SM CLR 22/16 A3007 RMK AO2 SLP163 T02170161 =
2018-07-16 20:55 METAR KPHP 170255Z AUTO 10006KT 10SM CLR 24/16 A3007 RMK AO2 SLP161 T02390161
                 53023 =
2018-07-16 19:55 METAR KPHP 170155Z AUTO 14008KT 10SM FEW065 SCT100 26/17 A3004 RMK AO2 SLP152
                 T02610167 =
2018-07-16 18:55 METAR KPHP 170055Z AUTO 06019KT 10SM BKN070 BKN100 30/17 A3000 RMK AO2 SLP139
                 T03000167 =
2018-07-16 17:55 METAR KPHP 162355Z AUTO 07014KT 10SM SCT085 32/16 A2999 RMK AO2 SLP136 T03220161
                 10356 20294 55010 =
2018-07-16 16:55 METAR KPHP 162255Z AUTO 07007KT 10SM BKN080 OVC095 34/16 A2999 RMK AO2 SLP134
                 T03440156 =
2018-07-16 15:55 METAR KPHP 162155Z AUTO 15004KT 10SM BKN080 34/16 A3001 RMK AO2 SLP140 T03390156
                 =
2018-07-16 13:55 METAR KPHP 161955Z AUTO VRB03KT 10SM FEW065 33/16 A3004 RMK AO2 SLP153 T03280161
                 =
2018-07-16 12:55 METAR KPHP 161855Z AUTO 20007KT 10SM FEW055 31/16 A3006 RMK AO2 SLP158 T03110161
                 =
2018-07-16 11:55 METAR KPHP 161755Z AUTO 16005KT 10SM FEW049 29/17 A3007 RMK AO2 SLP164 T02940167
                 10300 20167 58009 =
2018-07-16 10:55 METAR KPHP 161655Z AUTO 16008KT 10SM CLR 28/17 A3009 RMK AO2 SLP169 T02830167 =
2018-07-16 09:55 METAR KPHP 161555Z AUTO 16008KT 10SM CLR 27/16 A3010 RMK AO2 SLP173 T02670161 =
2018-07-16 08:55 METAR KPHP 161455Z AUTO 13007KT 10SM CLR 24/17 A3010 RMK AO2 SLP176 T02390167
                 56004 =
2018-07-16 07:55 METAR KPHP 161355Z AUTO 13004KT 10SM SCT080 20/17 A3011 RMK AO2 SLP178 T02000167
                 =
2018-07-16 06:55 METAR KPHP 161255Z AUTO 11006KT 10SM CLR 18/16 A3011 RMK AO2 SLP177 T01780161 =
2018-07-16 05:55 METAR KPHP 161155Z AUTO 10004KT 10SM FEW045 BKN070 17/16 A3012 RMK AO2 SLP181
                 70004 T01670156 10178 20150 53004 =
2018-07-16 04:55 METAR KPHP 161055Z AUTO 10003KT 10SM CLR 16/15 A3011 RMK AO2 SLP179 T01560150 =
2018-07-16 03:55 METAR KPHP 160955Z AUTO 07003KT 10SM CLR 16/14 A3010 RMK AO2 SLP179 T01560144 =
2018-07-16 02:55 METAR KPHP 160855Z AUTO 10005KT 10SM CLR 16/14 A3010 RMK AO2 SLP179 T01560144
                 58007 =
2018-07-16 01:55 METAR KPHP 160755Z AUTO 00000KT 10SM CLR 17/15 A3011 RMK AO2 SLP182 T01720150 =
2018-07-16 00:55 METAR KPHP 160655Z AUTO 00000KT 10SM CLR 17/14 A3012 RMK AO2 SLP187 T01720144
                 402670161 =
2018-07-15 23:55 METAR KPHP 160555Z AUTO 00000KT 10SM CLR 17/14 A3012 RMK AO2 SLP189 T01670139
                 10261 20167 50006 =

Support USWX by starting your Amazon purchase here.